Time;durP1;ratioP1;P1;durP2;ratioP2;P2;SDS_P1;SDS_P2;PMS_P1;PMS_P2;Temp;Humidity;BMP_temperature;BMP_pressure;BME280_temperature;BME280_humidity;BME280_pressure;Samples;Min_cycle;Max_cycle;Signal;HPM_P1;HPM_P2
2022/04/25 00:00:45;;;;;;;1.73;1.63;;;;;;;;;;5068044;28;20453;-67
2022/04/25 00:03:11;;;;;;;1.90;1.80;;;;;;;;;;5068067;28;20206;-67
2022/04/25 00:05:37;;;;;;;2.40;2.20;;;;;;;;;;5068075;28;20654;-67
2022/04/25 00:08:03;;;;;;;1.80;1.70;;;;;;;;;;5067766;28;20215;-67
2022/04/25 00:10:29;;;;;;;2.10;2.00;;;;;;;;;;5065238;28;20416;-67
2022/04/25 00:12:55;;;;;;;2.57;2.37;;;;;;;;;;5068105;28;20905;-67
2022/04/25 00:15:21;;;;;;;1.73;1.63;;;;;;;;;;5067999;28;20482;-67
2022/04/25 00:17:47;;;;;;;2.17;2.07;;;;;;;;;;5067842;28;20441;-67
2022/04/25 00:20:13;;;;;;;2.83;2.40;;;;;;;;;;5067991;28;20760;-67
2022/04/25 00:22:39;;;;;;;1.98;1.88;;;;;;;;;;5067919;28;20432;-67
2022/04/25 00:25:06;;;;;;;2.15;2.05;;;;;;;;;;5068480;28;20867;-67
2022/04/25 00:27:32;;;;;;;2.13;1.47;;;;;;;;;;5067828;28;20229;-67
2022/04/25 00:29:58;;;;;;;1.63;1.52;;;;;;;;;;5068128;28;20417;-67
2022/04/25 00:32:24;;;;;;;1.70;1.60;;;;;;;;;;5069089;28;20224;-67
2022/04/25 00:34:50;;;;;;;1.70;1.70;;;20.60;55.40;;;;;;5067902;28;20494;-67
2022/04/25 00:37:16;;;;;;;2.30;2.20;;;;;;;;;;5067593;28;20417;-67
2022/04/25 00:39:42;;;;;;;2.03;1.93;;;;;;;;;;5068120;28;20199;-67
2022/04/25 00:42:08;;;;;;;1.60;1.60;;;;;;;;;;5067456;28;20833;-67
2022/04/25 00:44:33;;;;;;;1.90;1.80;;;20.90;78.90;;;;;;5069728;28;20179;-67
2022/04/25 00:47:00;;;;;;;1.60;1.50;;;20.60;63.50;;;;;;5067657;28;20436;-67
2022/04/25 00:49:26;;;;;;;2.23;2.13;;;;;;;;;;5067646;28;20199;-67
2022/04/25 00:51:52;;;;;;;1.20;1.20;;;;;;;;;;5067701;28;20414;-67
2022/04/25 00:54:22;;;;;;;3.07;1.97;;;20.70;53.30;;;;;;5067640;28;20507;-67
2022/04/25 00:56:49;;;;;;;1.60;1.50;;;;;;;;;;5070016;28;20417;-67
2022/04/25 00:59:17;;;;;;;1.70;1.60;;;20.20;52.90;;;;;;5071121;28;20981;-67
2022/04/25 01:01:43;;;;;;;1.77;1.67;;;20.70;52.70;;;;;;5070742;28;20468;-67
2022/04/25 01:04:09;;;;;;;1.50;1.40;;;;;;;;;;5068226;28;20438;-67
2022/04/25 01:06:35;;;;;;;1.67;1.57;;;;;;;;;;5071108;28;20413;-67
2022/04/25 01:09:01;;;;;;;1.93;1.67;;;;;;;;;;5070370;28;20516;-68
2022/04/25 01:11:27;;;;;;;2.00;1.90;;;;;;;;;;5070539;28;20416;-68
2022/04/25 01:13:53;;;;;;;1.40;1.30;;;;;;;;;;5070436;28;20898;-67
2022/04/25 01:16:20;;;;;;;1.97;1.87;;;;;;;;;;5070169;28;20492;-67
2022/04/25 01:18:46;;;;;;;1.47;1.47;;;;;;;;;;5070265;28;20457;-68
2022/04/25 01:21:13;;;;;;;1.67;1.57;;;20.70;53.30;;;;;;5070220;28;20534;-67
2022/04/25 01:29:09;;;;;;;2.00;1.90;;;20.70;52.30;;;;;;5070076;28;20559;-67
2022/04/25 01:31:35;;;;;;;1.40;1.30;;;;;;;;;;5070371;28;20422;-68
2022/04/25 01:34:01;;;;;;;1.60;1.50;;;;;;;;;;5070155;28;20418;-67
2022/04/25 01:36:27;;;;;;;1.60;1.50;;;;;;;;;;5069903;28;20470;-67
2022/04/25 01:38:54;;;;;;;1.33;1.33;;;20.60;53.80;;;;;;5070388;28;20557;-68
2022/04/25 01:41:20;;;;;;;1.80;1.70;;;;;;;;;;5069814;28;20805;-67
2022/04/25 01:43:46;;;;;;;1.30;1.23;;;;;;;;;;5071165;28;20414;-67
2022/04/25 01:46:12;;;;;;;1.70;1.60;;;;;;;;;;5071676;28;20425;-68
2022/04/25 01:48:38;;;;;;;1.87;1.77;;;;;;;;;;5070017;28;20434;-67
2022/04/25 01:51:04;;;;;;;1.33;1.33;;;;;;;;;;5070188;28;20417;-67
2022/04/25 01:53:30;;;;;;;1.58;1.58;;;;;;;;;;5069940;28;20436;-68
2022/04/25 01:55:56;;;;;;;1.10;1.10;;;20.50;52.60;;;;;;5069883;28;20175;-67
2022/04/25 01:58:23;;;;;;;1.30;1.30;;;;;;;;;;5069587;28;20270;-67
2022/04/25 02:00:49;;;;;;;2.03;1.80;;;;;;;;;;5069701;28;20495;-67
2022/04/25 02:03:15;;;;;;;1.60;1.50;;;;;;;;;;5069851;28;20493;-67
2022/04/25 02:05:41;;;;;;;1.10;1.10;;;;;;;;;;5069740;28;20625;-68
2022/04/25 02:08:07;;;;;;;1.33;1.33;;;;;;;;;;5068922;28;20433;-68
2022/04/25 02:10:33;;;;;;;1.97;1.87;;;;;;;;;;5071818;28;20413;-67
2022/04/25 02:12:59;;;;;;;1.70;1.70;;;;;;;;;;5069478;28;20567;-68
2022/04/25 02:15:25;;;;;;;1.50;1.50;;;;;;;;;;5069442;28;20421;-68
2022/04/25 02:17:51;;;;;;;1.80;1.70;;;;;;;;;;5068958;28;20449;-68
2022/04/25 02:20:17;;;;;;;1.40;1.13;;;20.10;61.60;;;;;;5069623;28;20826;-68
2022/04/25 02:22:43;;;;;;;1.83;1.73;;;;;;;;;;5069596;28;20940;-68
2022/04/25 02:25:10;;;;;;;1.80;1.77;;;20.60;52.60;;;;;;5069305;28;20172;-68
2022/04/25 02:27:36;;;;;;;1.93;1.83;;;;;;;;;;5068803;28;20925;-68
2022/04/25 02:30:02;;;;;;;1.67;1.57;;;;;;;;;;5069194;28;20501;-67
2022/04/25 02:32:28;;;;;;;1.77;1.67;;;20.50;53.10;;;;;;5068939;28;20425;-67
2022/04/25 02:34:54;;;;;;;1.80;1.70;;;20.10;53.20;;;;;;5070472;28;20945;-68
2022/04/25 02:37:23;;;;;;;1.33;1.30;;;20.60;50.30;;;;;;5068601;28;20422;-67
2022/04/25 02:39:50;;;;;;;1.43;1.33;;;;;;;;;;5070299;28;20983;-68
2022/04/25 02:42:16;;;;;;;1.83;1.73;;;;;;;;;;5068731;28;20417;-68
2022/04/25 02:44:42;;;;;;;1.07;1.07;;;;;;;;;;5068997;28;20452;-68
2022/04/25 02:47:08;;;;;;;1.20;1.20;;;20.80;58.90;;;;;;5068577;28;20442;-68
2022/04/25 02:49:34;;;;;;;1.30;1.20;;;;;;;;;;5068700;28;20191;-68
2022/04/25 02:52:00;;;;;;;1.40;1.40;;;;;;;;;;5068917;28;20414;-67
2022/04/25 02:54:26;;;;;;;1.40;1.30;;;;;;;;;;5068971;28;20486;-67
2022/04/25 02:56:52;;;;;;;1.38;1.27;;;;;;;;;;5068470;28;20421;-68
2022/04/25 02:59:20;;;;;;;1.33;1.33;;;;;;;;;;5068593;28;20667;-68
2022/04/25 03:01:46;;;;;;;2.57;1.63;;;;;;;;;;5068380;28;20452;-68
2022/04/25 03:04:12;;;;;;;1.40;1.40;;;;;;;;;;5068888;28;20462;-68
2022/04/25 03:06:38;;;;;;;1.57;1.47;;;;;;;;;;5068238;28;20202;-67
2022/04/25 03:09:05;;;;;;;1.60;1.50;;;;;;;;;;5068294;28;20198;-68
2022/04/25 03:11:33;;;;;;;1.40;1.40;;;;;;;;;;5065589;28;20417;-67
2022/04/25 03:13:59;;;;;;;1.37;1.37;;;;;;;;;;5071319;28;20409;-68
2022/04/25 03:16:25;;;;;;;1.50;1.40;;;;;;;;;;5067455;28;20414;-67
2022/04/25 03:18:51;;;;;;;1.20;1.20;;;;;;;;;;5064197;28;20471;-68
2022/04/25 03:21:17;;;;;;;1.60;1.50;;;;;;;;;;5067768;28;20499;-67
2022/04/25 03:23:43;;;;;;;1.60;1.50;;;;;;;;;;5079755;28;20478;-68
2022/04/25 03:26:09;;;;;;;1.40;1.40;;;;;;;;;;5089637;28;20227;-68
2022/04/25 03:28:35;;;;;;;1.80;1.67;;;;;;;;;;5089192;28;20234;-68
2022/04/25 03:31:01;;;;;;;1.37;1.27;;;;;;;;;;5069474;28;20432;-68
2022/04/25 03:33:31;;;;;;;1.23;1.13;;;20.80;62.00;;;;;;5076585;28;20503;-67
2022/04/25 03:35:57;;;;;;;1.30;1.30;;;;;;;;;;5070401;28;20175;-68
2022/04/25 03:38:23;;;;;;;1.47;1.47;;;;;;;;;;5069268;28;20906;-68
2022/04/25 03:40:49;;;;;;;1.73;1.63;;;;;;;;;;5069243;28;20449;-67
2022/04/25 03:43:17;;;;;;;1.50;1.33;;;;;;;;;;5069257;28;20418;-68
2022/04/25 03:45:43;;;;;;;1.60;1.50;;;;;;;;;;5073804;28;20421;-68
2022/04/25 03:48:09;;;;;;;1.10;1.10;;;;;;;;;;5069180;28;20805;-68
2022/04/25 03:50:35;;;;;;;1.50;1.40;;;;;;;;;;5069209;28;20556;-67
2022/04/25 03:53:09;;;;;;;2.00;1.90;;;20.50;50.10;;;;;;5069134;28;20894;-67
2022/04/25 03:58:21;;;;;;;1.60;1.47;;;20.40;53.90;;;;;;5089301;28;20530;-67
2022/04/25 04:00:47;;;;;;;1.37;1.27;;;;;;;;;;5089191;28;20456;-68
2022/04/25 04:03:14;;;;;;;1.40;1.40;;;;;;;;;;5089089;28;20588;-68
2022/04/25 04:05:42;;;;;;;1.30;1.30;;;;;;;;;;5079425;28;20409;-68
2022/04/25 04:08:08;;;;;;;1.70;1.60;;;;;;;;;;5068702;28;20430;-68
2022/04/25 04:10:34;;;;;;;1.70;1.60;;;;;;;;;;5082057;28;20965;-68
2022/04/25 04:13:00;;;;;;;1.40;1.40;;;;;;;;;;5078354;28;20499;-67
2022/04/25 04:15:26;;;;;;;2.17;1.00;;;;;;;;;;5068181;28;20172;-68
2022/04/25 04:17:52;;;;;;;1.80;1.70;;;;;;;;;;5068765;28;20214;-68
2022/04/25 04:20:18;;;;;;;1.60;1.60;;;;;;;;;;5078941;28;20469;-67
2022/04/25 04:22:44;;;;;;;1.45;1.45;;;;;;;;;;5088661;28;20447;-68
2022/04/25 04:25:13;;;;;;;1.30;1.30;;;20.50;53.40;;;;;;5089035;28;20159;-67
2022/04/25 04:27:40;;;;;;;1.50;1.40;;;20.50;52.00;;;;;;5088977;28;20471;-67
2022/04/25 04:30:08;;;;;;;1.40;1.30;;;20.40;74.60;;;;;;5082058;28;20449;-67
2022/04/25 04:32:34;;;;;;;1.43;1.43;;;;;;;;;;5072543;28;20898;-68
2022/04/25 04:35:01;;;;;;;1.15;1.15;;;20.80;60.80;;;;;;5072516;28;20413;-67
2022/04/25 04:37:28;;;;;;;1.67;1.57;;;20.50;53.00;;;;;;5072091;28;20262;-68
2022/04/25 04:40:28;;;;;;;1.23;1.20;;;;;;;;;;5077254;28;20936;-68
2022/04/25 04:42:41;;;;;;;1.60;1.50;;;;;;;;;;5092554;28;20780;-67
2022/04/25 04:45:07;;;;;;;1.20;1.20;;;20.60;51.60;;;;;;5088446;28;21023;-67
2022/04/25 04:47:35;;;;;;;1.20;1.10;;;20.60;60.70;;;;;;5072469;28;20504;-67
2022/04/25 04:50:01;;;;;;;1.30;1.20;;;;;;;;;;5072683;28;20406;-67
2022/04/25 04:52:27;;;;;;;1.60;1.50;;;;;;;;;;5072627;28;20175;-68
2022/04/25 04:54:53;;;;;;;1.87;1.77;;;;;;;;;;5066667;28;20417;-67
2022/04/25 04:57:19;;;;;;;2.70;2.60;;;;;;;;;;5073236;28;20737;-68
2022/04/25 04:59:44;;;;;;;2.87;2.67;;;;;;;;;;5067214;28;20961;-68
2022/04/25 05:02:10;;;;;;;3.50;3.30;;;;;;;;;;5064307;28;20477;-68
2022/04/25 05:04:38;;;;;;;2.60;2.50;;;;;;;;;;5071685;28;20584;-68
2022/04/25 05:07:04;;;;;;;2.57;2.47;;;;;;;;;;5070487;28;20413;-68
2022/04/25 05:09:30;;;;;;;2.00;1.90;;;;;;;;;;5076712;28;20432;-68
2022/04/25 05:11:56;;;;;;;2.00;1.90;;;;;;;;;;5074391;28;21120;-68
2022/04/25 05:14:22;;;;;;;1.60;1.60;;;;;;;;;;5072110;28;20920;-68
2022/04/25 05:16:48;;;;;;;1.77;1.77;;;;;;;;;;5071332;28;20928;-67
2022/04/25 05:19:14;;;;;;;1.77;1.77;;;;;;;;;;5072113;28;20913;-68
2022/04/25 05:21:40;;;;;;;1.47;1.47;;;;;;;;;;5071909;28;21034;-67
2022/04/25 05:24:06;;;;;;;1.60;1.60;;;20.60;70.40;;;;;;5071834;28;20171;-68
2022/04/25 05:26:32;;;;;;;1.53;1.43;;;;;;;;;;5071462;28;20456;-68
2022/04/25 05:28:58;;;;;;;1.90;1.80;;;;;;;;;;5071683;28;20454;-68
2022/04/25 05:31:24;;;;;;;1.13;1.13;;;20.60;52.30;;;;;;5072509;28;20418;-67
2022/04/25 05:33:50;;;;;;;1.50;1.40;;;;;;;;;;5070524;28;20198;-68
2022/04/25 05:36:16;;;;;;;1.40;1.40;;;;;;;;;;5069240;28;20398;-68
2022/04/25 05:38:42;;;;;;;1.20;1.20;;;;;;;;;;5071096;28;20440;-71
2022/04/25 05:41:09;;;;;;;1.50;1.50;;;;;;;;;;5064806;28;20563;-68
2022/04/25 05:43:36;;;;;;;1.20;1.13;;;;;;;;;;5069156;28;20461;-68
2022/04/25 05:46:02;;;;;;;1.27;1.27;;;;;;;;;;5080393;28;20417;-67
2022/04/25 05:54:17;;;;;;;1.85;1.75;;;;;;;;;;5077639;28;20482;-67
2022/04/25 05:56:43;;;;;;;1.67;1.67;;;;;;;;;;5075970;28;20183;-67
2022/04/25 05:59:09;;;;;;;1.70;1.60;;;;;;;;;;5073714;28;20702;-69
2022/04/25 06:01:35;;;;;;;1.50;1.50;;;;;;;;;;5070113;28;20263;-68
2022/04/25 06:04:01;;;;;;;2.10;2.00;;;;;;;;;;5080171;28;20418;-67
2022/04/25 06:06:27;;;;;;;2.53;2.33;;;;;;;;;;5076817;28;20444;-68
2022/04/25 06:08:53;;;;;;;3.10;2.17;;;;;;;;;;5078220;28;20430;-68
2022/04/25 06:11:21;;;;;;;4.77;2.30;;;;;;;;;;5070014;28;20430;-69
2022/04/25 06:13:47;;;;;;;4.60;2.37;;;20.80;59.20;;;;;;5078474;28;20421;-70
2022/04/25 06:16:13;;;;;;;4.80;2.90;;;;;;;;;;5083243;28;20512;-69
2022/04/25 06:18:39;;;;;;;4.10;3.10;;;;;;;;;;5071538;28;20548;-68
2022/04/25 06:21:05;;;;;;;2.87;2.63;;;;;;;;;;5071037;28;20203;-68
2022/04/25 06:23:31;;;;;;;10.73;3.00;;;;;;;;;;5074738;28;20491;-66
2022/04/25 06:25:58;;;;;;;16.73;3.77;;;20.90;54.20;;;;;;5084663;28;20977;-68
2022/04/25 06:28:28;;;;;;;12.47;3.30;;;;;;;;;;5070487;28;20781;-67
2022/04/25 06:30:54;;;;;;;4.30;2.93;;;;;;;;;;5070663;28;20406;-68
2022/04/25 06:33:20;;;;;;;8.80;3.30;;;;;;;;;;5070594;28;20486;-67
2022/04/25 06:35:46;;;;;;;10.83;3.63;;;21.00;54.80;;;;;;5081890;28;20504;-67
2022/04/25 06:38:15;;;;;;;3.80;2.97;;;;;;;;;;5077558;28;20447;-67
2022/04/25 06:40:42;;;;;;;12.70;3.50;;;;;;;;;;5089245;28;20453;-66
2022/04/25 06:43:08;;;;;;;18.70;3.47;;;;;;;;;;5070138;28;20523;-66
2022/04/25 06:45:34;;;;;;;12.10;3.50;;;21.30;81.80;;;;;;5074329;28;20413;-66
2022/04/25 06:48:00;;;;;;;9.63;3.30;;;21.00;74.40;;;;;;5090295;28;20436;-66
2022/04/25 06:50:26;;;;;;;9.10;3.37;;;;;;;;;;5083935;28;20264;-65
2022/04/25 06:52:52;;;;;;;11.07;3.00;;;;;;;;;;5083391;28;20620;-66
2022/04/25 06:55:19;;;;;;;5.30;3.13;;;;;;;;;;5083782;28;20413;-66
2022/04/25 06:57:47;;;;;;;7.30;3.03;;;;;;;;;;5073118;28;20440;-66
2022/04/25 07:00:17;;;;;;;5.63;3.60;;;;;;;;;;5072559;28;20409;-66
2022/04/25 07:02:44;;;;;;;9.30;2.97;;;21.10;53.30;;;;;;5071881;28;20413;-68
2022/04/25 07:05:10;;;;;;;8.47;2.90;;;;;;;;;;5083332;28;20475;-68
2022/04/25 07:07:37;;;;;;;5.70;2.50;;;;;;;;;;5071933;28;20414;-67
2022/04/25 07:10:03;;;;;;;7.10;3.13;;;;;;;;;;5079813;28;20405;-67
2022/04/25 07:12:29;;;;;;;5.50;3.28;;;;;;;;;;5073862;28;20822;-67
2022/04/25 07:14:56;;;;;;;8.63;3.67;;;;;;;;;;5085330;28;20261;-72
2022/04/25 07:17:21;;;;;;;6.03;3.60;;;21.30;81.70;;;;;;5085840;28;20409;-71
2022/04/25 07:19:47;;;;;;;9.50;2.97;;;21.00;61.10;;;;;;5081682;28;20435;-74
2022/04/25 07:30:26;;;;;;;5.70;2.83;;;;;;;;;;5061542;28;20416;-68
2022/04/25 07:32:55;;;;;;;7.47;2.50;;;;;;;;;;5071089;28;20418;-67
2022/04/25 07:35:21;;;;;;;3.43;3.13;;;;;;;;;;5068980;28;20474;-66
2022/04/25 07:37:48;;;;;;;4.80;2.90;;;;;;;;;;5071143;28;20825;-69
2022/04/25 07:40:14;;;;;;;5.07;2.87;;;;;;;;;;5075533;28;20433;-68
2022/04/25 07:42:40;;;;;;;4.77;3.30;;;;;;;;;;5069272;28;20417;-67
2022/04/25 07:45:07;;;;;;;6.23;2.53;;;;;;;;;;5069896;28;20401;-67
2022/04/25 07:47:36;;;;;;;6.47;3.10;;;21.50;56.90;;;;;;5068337;28;20402;-67
2022/04/25 07:50:02;;;;;;;2.50;2.30;;;;;;;;;;5069647;28;20174;-68
2022/04/25 07:52:28;;;;;;;5.03;2.67;;;;;;;;;;5069523;28;20409;-68
2022/04/25 07:54:55;;;;;;;4.40;2.28;;;;;;;;;;5057630;28;20434;-69
2022/04/25 07:57:21;;;;;;;4.43;2.30;;;;;;;;;;5075950;28;20503;-69
2022/04/25 07:59:47;;;;;;;8.10;2.30;;;;;;;;;;5065463;28;20417;-69
2022/04/25 08:02:13;;;;;;;4.20;2.50;;;;;;;;;;5067451;28;20493;-66
2022/04/25 08:04:39;;;;;;;4.80;3.10;;;;;;;;;;5070831;28;20722;-69
2022/04/25 08:07:05;;;;;;;2.93;2.67;;;;;;;;;;5068406;28;20496;-66
2022/04/25 08:09:31;;;;;;;3.23;2.23;;;;;;;;;;5079647;28;20457;-67
2022/04/25 08:20:11;;;;;;;3.30;2.90;;;;;;;;;;5073324;28;20482;-67
2022/04/25 08:22:37;;;;;;;4.33;2.60;;;;;;;;;;5075645;28;20439;-67
2022/04/25 08:25:04;;;;;;;3.33;3.00;;;21.00;56.60;;;;;;5075966;28;20417;-68
2022/04/25 08:27:30;;;;;;;2.97;2.67;;;;;;;;;;5078768;28;20424;-67
2022/04/25 08:29:57;;;;;;;6.38;3.10;;;;;;;;;;5093304;28;21073;-66
2022/04/25 08:32:23;;;;;;;2.77;2.03;;;;;;;;;;5090984;28;20416;-65
2022/04/25 08:34:48;;;;;;;5.80;3.03;;;;;;;;;;5093193;28;20438;-67
2022/04/25 08:37:16;;;;;;;3.27;2.67;;;;;;;;;;5080246;28;20496;-65
2022/04/25 08:39:42;;;;;;;3.63;2.53;;;;;;;;;;5075271;28;20450;-65
2022/04/25 08:42:09;;;;;;;4.20;2.27;;;;;;;;;;5079959;28;20459;-65
2022/04/25 08:44:35;;;;;;;2.87;2.57;;;;;;;;;;5086684;28;20431;-65
2022/04/25 08:47:02;;;;;;;3.80;2.70;;;;;;;;;;5076675;28;20471;-67
2022/04/25 08:49:28;;;;;;;1.95;1.83;;;;;;;;;;5079837;28;20483;-67
2022/04/25 08:51:58;;;;;;;3.13;2.80;;;;;;;;;;5092954;28;20234;-68
2022/04/25 08:54:29;;;;;;;2.93;2.40;;;21.40;58.70;;;;;;5081997;28;20420;-68
2022/04/25 08:56:55;;;;;;;7.57;3.70;;;;;;;;;;5072814;28;20440;-67
2022/04/25 08:59:21;;;;;;;2.40;2.20;;;;;;;;;;5072490;28;20443;-68
2022/04/25 09:01:47;;;;;;;2.30;2.20;;;;;;;;;;5085351;28;20464;-67
2022/04/25 09:04:14;;;;;;;2.10;2.00;;;;;;;;;;5093007;28;20457;-68
2022/04/25 09:06:40;;;;;;;2.70;2.50;;;;;;;;;;5072482;28;20425;-68
2022/04/25 09:09:06;;;;;;;2.40;2.13;;;;;;;;;;5071675;28;20909;-67
2022/04/25 09:14:16;;;;;;;3.23;2.40;;;21.50;67.80;;;;;;5052218;28;20409;-66
2022/04/25 09:16:43;;;;;;;2.30;2.20;;;;;;;;;;5054101;28;20520;-66
2022/04/25 09:19:08;;;;;;;2.43;2.33;;;;;;;;;;5092254;28;20202;-66
2022/04/25 09:21:44;;;;;;;5.93;2.40;;;21.50;52.80;;;;;;5092491;28;20776;-66
2022/04/25 09:24:27;;;;;;;2.30;2.20;;;21.50;52.70;;;;;;5072273;28;20425;-67
2022/04/25 09:27:09;;;;;;;3.07;2.77;;;21.50;67.80;;;;;;5090827;28;20431;-65
2022/04/25 09:29:36;;;;;;;2.83;2.10;;;21.50;58.00;;;;;;5092020;28;20420;-66
2022/04/25 09:32:03;;;;;;;2.10;2.00;;;22.20;58.40;;;;;;5091963;28;20266;-65
2022/04/25 09:37:14;;;;;;;5.80;2.40;;;;;;;;;;5079358;28;21303;-65
2022/04/25 09:39:40;;;;;;;3.73;2.73;;;;;;;;;;5071927;28;20441;-65
2022/04/25 09:42:07;;;;;;;2.73;2.53;;;21.50;64.20;;;;;;5072563;28;20598;-65
2022/04/25 09:44:52;;;;;;;2.78;1.70;;;21.20;52.80;;;;;;5073205;28;20410;-65
2022/04/25 09:47:45;;;;;;;2.60;2.40;;;21.60;52.80;;;;;;5075456;28;20179;-65
2022/04/25 09:50:14;;;;;;;5.33;2.00;;;21.60;52.70;;;;;;5082417;28;20424;-66
2022/04/25 09:52:54;;;;;;;2.30;2.10;;;21.70;52.90;;;;;;5074430;28;20418;-66
2022/04/25 09:55:21;;;;;;;2.20;2.10;;;21.60;56.30;;;;;;5078392;28;20442;-66
2022/04/25 09:57:49;;;;;;;2.10;2.00;;;;;;;;;;5086231;28;20511;-66
2022/04/25 10:00:38;;;;;;;1.90;1.73;;;21.70;52.60;;;;;;5078564;28;20448;-67
2022/04/25 10:03:05;;;;;;;1.83;1.73;;;21.70;58.00;;;;;;5081652;28;20512;-67
2022/04/25 10:05:42;;;;;;;1.57;1.50;;;22.50;52.90;;;;;;5077555;28;20421;-66
2022/04/25 10:08:10;;;;;;;3.07;2.33;;;21.70;58.00;;;;;;5071930;28;20441;-67
2022/04/25 10:10:45;;;;;;;2.57;2.47;;;21.60;52.50;;;;;;5068784;28;20422;-66
2022/04/25 10:13:11;;;;;;;2.60;2.50;;;;;;;;;;5069389;28;20812;-66
2022/04/25 10:15:41;;;;;;;2.17;1.97;;;21.60;52.40;;;;;;5070777;28;20402;-66
2022/04/25 10:18:09;;;;;;;1.73;1.63;;;;;;;;;;5067907;28;20485;-66
2022/04/25 10:20:36;;;;;;;2.33;2.13;;;21.80;55.20;;;;;;5070314;28;20494;-66
2022/04/25 10:23:07;;;;;;;3.70;2.47;;;21.60;66.90;;;;;;5074095;28;20498;-66
2022/04/25 10:25:33;;;;;;;1.83;1.73;;;;;;;;;;5069994;28;20410;-65
2022/04/25 10:28:02;;;;;;;1.77;1.67;;;21.60;57.70;;;;;;5074297;28;20613;-66
2022/04/25 10:30:36;;;;;;;2.37;1.63;;;21.50;51.90;;;;;;5070596;28;20524;-66
2022/04/25 10:33:21;;;;;;;2.07;1.97;;;21.40;52.20;;;;;;5070465;28;20424;-66
2022/04/25 10:35:49;;;;;;;1.80;1.70;;;21.70;57.70;;;;;;5070192;28;21249;-66
2022/04/25 10:38:48;;;;;;;3.57;2.10;;;21.60;52.10;;;;;;5070460;28;20433;-66
2022/04/25 10:44:44;;;;;;;1.83;1.73;;;;;;;;;;5070126;28;20473;-66
2022/04/25 10:47:15;;;;;;;1.93;1.50;;;21.50;66.80;;;;;;5080449;28;20417;-66
2022/04/25 10:49:53;;;;;;;3.83;1.60;;;21.60;52.60;;;;;;5083896;28;20437;-66
2022/04/25 10:52:33;;;;;;;1.70;1.60;;;21.40;61.20;;;;;;5070033;28;20236;-66
2022/04/25 10:55:23;;;;;;;1.98;1.88;;;21.60;52.40;;;;;;5070282;28;20506;-66
2022/04/25 10:58:04;;;;;;;2.17;1.97;;;21.50;52.10;;;;;;5085010;28;20202;-66
2022/04/25 11:00:45;;;;;;;2.40;2.17;;;;;;;;;;5049865;28;20919;-66
2022/04/25 11:03:24;;;;;;;2.40;2.20;;;21.80;60.90;;;;;;5050431;28;20460;-66
2022/04/25 11:06:03;;;;;;;2.03;1.92;;;21.70;52.10;;;;;;5049733;28;20191;-66
2022/04/25 11:08:34;;;;;;;2.20;2.10;;;21.60;57.20;;;;;;5071274;28;20194;-66
2022/04/25 11:11:30;;;;;;;1.60;1.50;;;23.60;58.60;;;;;;5079016;28;20418;-66
2022/04/25 11:14:01;;;;;;;1.50;1.40;;;;;;;;;;5063788;28;20871;-66
2022/04/25 11:16:28;;;;;;;1.70;1.60;;;;;;;;;;5069647;28;20406;-66
2022/04/25 11:19:15;;;;;;;1.50;1.40;;;21.60;52.40;;;;;;5078265;28;20902;-66
2022/04/25 11:21:45;;;;;;;1.73;1.63;;;21.60;57.40;;;;;;5069892;28;21126;-66
2022/04/25 11:24:46;;;;;;;3.10;1.67;;;21.60;60.40;;;;;;5069891;28;20430;-66
2022/04/25 11:27:14;;;;;;;1.67;1.30;;;;;;;;;;5067046;28;20424;-66
2022/04/25 11:29:47;;;;;;;1.73;1.63;;;21.70;52.10;;;;;;5069137;28;20441;-66
2022/04/25 11:32:25;;;;;;;1.20;1.20;;;21.70;52.20;;;;;;5069828;28;20971;-66
2022/04/25 11:34:52;;;;;;;1.70;1.60;;;;;;;;;;5069865;28;20416;-66
2022/04/25 11:37:22;;;;;;;1.40;1.40;;;;;;;;;;5069520;28;20441;-66
2022/04/25 11:40:04;;;;;;;1.40;1.30;;;21.70;60.70;;;;;;5081750;28;20431;-65
2022/04/25 11:42:32;;;;;;;1.30;1.20;;;21.70;57.70;;;;;;5064761;28;20469;-66
2022/04/25 11:44:58;;;;;;;1.53;1.43;;;;;;;;;;5071940;28;20205;-66
2022/04/25 11:47:24;;;;;;;1.35;1.25;;;21.70;54.60;;;;;;5077740;28;20842;-66
2022/04/25 11:50:01;;;;;;;1.70;1.60;;;21.70;52.00;;;;;;5088995;28;20198;-66
2022/04/25 11:52:27;;;;;;;1.30;1.17;;;;;;;;;;5089697;28;20396;-66
2022/04/25 11:54:54;;;;;;;1.17;1.15;;;21.70;56.90;;;;;;5089633;28;20888;-65
2022/04/25 11:57:20;;;;;;;1.40;1.40;;;;;;;;;;5084031;28;20178;-66
2022/04/25 11:59:46;;;;;;;1.60;1.50;;;;;;;;;;5072980;28;20425;-66
2022/04/25 12:02:13;;;;;;;1.33;1.33;;;;;;;;;;5069279;28;20738;-66
2022/04/25 12:04:40;;;;;;;1.27;1.27;;;;;;;;;;5069471;28;20397;-66
2022/04/25 12:07:10;;;;;;;1.60;1.50;;;21.90;51.50;;;;;;5068990;28;20409;-65
2022/04/25 12:15:37;;;;;;;1.17;1.07;;;21.80;51.80;;;;;;5069312;28;20440;-66
2022/04/25 12:18:26;;;;;;;1.53;1.43;;;21.90;51.50;;;;;;5068424;28;20468;-68
2022/04/25 12:20:51;;;;;;;1.47;1.37;;;;;;;;;;5085808;28;20456;-68
2022/04/25 12:23:23;;;;;;;1.57;1.47;;;22.00;52.00;;;;;;5086928;28;20435;-69
2022/04/25 12:25:49;;;;;;;9.00;1.77;;;;;;;;;;5089062;28;20171;-68
2022/04/25 12:28:15;;;;;;;1.93;1.83;;;;;;;;;;5080072;28;20507;-71
2022/04/25 12:30:52;;;;;;;2.00;1.90;;;22.10;52.20;;;;;;5069007;28;20414;-71
2022/04/25 12:33:19;;;;;;;1.50;1.40;;;21.60;57.30;;;;;;5068947;28;20504;-71
2022/04/25 12:35:47;;;;;;;1.80;1.70;;;22.20;57.50;;;;;;5077502;28;20420;-71
2022/04/25 12:38:33;;;;;;;1.43;1.43;;;21.70;56.80;;;;;;5073339;28;20444;-68
2022/04/25 12:40:59;;;;;;;2.00;1.90;;;;;;;;;;5063763;28;20481;-69
2022/04/25 12:43:37;;;;;;;1.87;1.43;;;22.10;51.50;;;;;;5068645;28;20457;-69
2022/04/25 12:46:03;;;;;;;1.50;1.50;;;;;;;;;;5070140;28;20453;-70
2022/04/25 12:48:29;;;;;;;6.03;3.30;;;;;;;;;;5082135;28;20809;-68
2022/04/25 12:50:55;;;;;;;1.60;1.60;;;;;;;;;;5090133;28;20839;-68
2022/04/25 12:53:39;;;;;;;1.90;1.90;;;22.40;59.90;;;;;;5092223;28;20504;-68
2022/04/25 12:56:05;;;;;;;1.60;1.50;;;;;;;;;;5074908;28;20421;-66
2022/04/25 12:58:34;;;;;;;1.90;1.80;;;22.40;51.30;;;;;;5092797;28;20201;-69
2022/04/25 13:01:00;;;;;;;1.50;1.50;;;;;;;;;;5092545;28;20460;-68
2022/04/25 13:03:26;;;;;;;1.80;1.70;;;;;;;;;;5090634;28;20478;-68
2022/04/25 13:05:53;;;;;;;1.77;1.77;;;;;;;;;;5090545;28;20507;-68
2022/04/25 13:08:20;;;;;;;1.77;1.67;;;;;;;;;;5073368;28;20451;-66
2022/04/25 13:10:46;;;;;;;1.60;1.60;;;;;;;;;;5070664;28;20432;-68
2022/04/25 13:13:12;;;;;;;1.83;1.73;;;;;;;;;;5072368;28;20512;-68
2022/04/25 13:15:38;;;;;;;1.60;1.50;;;;;;;;;;5072196;28;20413;-68
2022/04/25 13:18:04;;;;;;;1.47;1.37;;;;;;;;;;5072249;28;20457;-69
2022/04/25 13:20:31;;;;;;;1.40;1.30;;;;;;;;;;5072143;28;20475;-69
2022/04/25 13:22:59;;;;;;;1.60;1.60;;;;;;;;;;5072196;28;20841;-69
2022/04/25 13:25:25;;;;;;;2.20;2.00;;;;;;;;;;5071697;28;20482;-69
2022/04/25 13:27:52;;;;;;;1.70;1.60;;;22.40;56.50;;;;;;5071314;28;21231;-69
2022/04/25 13:30:19;;;;;;;1.40;1.40;;;22.30;55.60;;;;;;5071822;28;20168;-70
2022/04/25 13:32:46;;;;;;;1.77;1.77;;;21.90;53.80;;;;;;5071590;28;20402;-69
2022/04/25 13:35:14;;;;;;;1.73;1.63;;;22.20;56.40;;;;;;5071518;28;20444;-68
2022/04/25 13:37:40;;;;;;;2.00;1.47;;;;;;;;;;5071436;28;20491;-68
2022/04/25 13:40:06;;;;;;;10.73;2.07;;;;;;;;;;5069748;28;20518;-68
2022/04/25 13:42:32;;;;;;;1.53;1.37;;;;;;;;;;5074685;28;20504;-67
2022/04/25 13:44:58;;;;;;;1.70;1.60;;;;;;;;;;5071336;28;20429;-66
2022/04/25 13:47:26;;;;;;;1.92;1.83;;;;;;;;;;5070961;28;20493;-65
2022/04/25 13:49:51;;;;;;;1.30;1.23;;;;;;;;;;5071729;28;20638;-67
2022/04/25 13:52:17;;;;;;;2.10;2.00;;;;;;;;;;5071357;28;20175;-68
2022/04/25 13:54:43;;;;;;;1.93;1.40;;;;;;;;;;5070840;28;20984;-67
2022/04/25 13:57:11;;;;;;;1.70;1.60;;;22.40;55.90;;;;;;5075430;28;20455;-67
2022/04/25 13:59:39;;;;;;;3.27;1.37;;;;;;;;;;5091531;28;20476;-67
2022/04/25 14:04:50;;;;;;;2.50;1.93;;;;;;;;;;5073679;28;20978;-67
2022/04/25 14:07:16;;;;;;;1.30;1.30;;;22.40;53.30;;;;;;5071019;28;20417;-66
2022/04/25 14:09:42;;;;;;;2.60;1.63;;;22.60;54.20;;;;;;5076736;28;20433;-72
2022/04/25 14:12:08;;;;;;;1.87;1.70;;;;;;;;;;5078615;28;20504;-73
2022/04/25 14:14:36;;;;;;;1.60;1.60;;;;;;;;;;5071261;28;20406;-72
2022/04/25 14:17:02;;;;;;;1.97;1.87;;;;;;;;;;5071124;28;20175;-74
2022/04/25 14:19:28;;;;;;;1.93;1.83;;;;;;;;;;5077649;28;20460;-70
2022/04/25 14:21:54;;;;;;;1.63;1.60;;;;;;;;;;5085559;28;20471;-70
2022/04/25 14:24:21;;;;;;;1.70;1.60;;;;;;;;;;5091422;28;20480;-69
2022/04/25 14:26:48;;;;;;;1.90;1.43;;;;;;;;;;5072136;28;20517;-70
2022/04/25 14:29:14;;;;;;;2.00;1.90;;;;;;;;;;5070688;28;20429;-70
2022/04/25 14:31:41;;;;;;;1.33;1.33;;;;;;;;;;5072458;28;20495;-70
2022/04/25 14:34:07;;;;;;;2.13;1.30;;;;;;;;;;5090973;28;20409;-70
2022/04/25 14:36:33;;;;;;;1.30;1.30;;;;;;;;;;5084096;28;20414;-70
2022/04/25 14:38:59;;;;;;;1.30;1.30;;;;;;;;;;5070613;28;20433;-70
2022/04/25 14:41:24;;;;;;;1.00;1.00;;;22.70;84.00;;;;;;5080123;28;20452;-70
2022/04/25 14:43:51;;;;;;;1.30;1.30;;;;;;;;;;5090436;28;20503;-70
2022/04/25 14:46:17;;;;;;;1.30;1.20;;;;;;;;;;5067894;28;20575;-69
2022/04/25 14:48:43;;;;;;;1.40;1.40;;;;;;;;;;5071250;28;21127;-70
2022/04/25 14:56:38;;;;;;;1.90;1.60;;;;;;;;;;5072610;28;20903;-68
2022/04/25 14:59:04;;;;;;;1.30;1.20;;;;;;;;;;5075547;28;20441;-67
2022/04/25 15:01:30;;;;;;;1.20;1.10;;;22.50;56.20;;;;;;5069968;28;20461;-67